createdAt,value
2023-03-26T00:01:15.501Z,8.63
2023-03-26T00:03:44.848Z,8.40
2023-03-26T00:06:13.456Z,7.80
2023-03-26T00:08:41.611Z,8.27
2023-03-26T00:11:10.504Z,7.82
2023-03-26T00:13:37.769Z,8.45
2023-03-26T00:16:05.276Z,7.53
2023-03-26T00:18:35.374Z,8.82
2023-03-26T00:21:04.478Z,7.95
2023-03-26T00:23:35.806Z,7.15
2023-03-26T00:26:03.711Z,7.30
2023-03-26T00:28:31.490Z,7.70
2023-03-26T00:31:06.039Z,6.88
2023-03-26T00:33:38.214Z,6.32
2023-03-26T00:36:06.530Z,7.28
2023-03-26T00:38:38.711Z,7.43
2023-03-26T00:41:07.052Z,6.95
2023-03-26T00:43:36.584Z,6.88
2023-03-26T00:46:04.276Z,7.00
2023-03-26T00:48:44.102Z,6.65
2023-03-26T00:51:15.247Z,6.85
2023-03-26T00:53:42.997Z,5.85
2023-03-26T00:56:13.279Z,6.55
2023-03-26T00:58:40.792Z,6.60
2023-03-26T01:01:10.383Z,7.30
2023-03-26T01:03:38.908Z,6.70
2023-03-26T01:06:09.898Z,6.00
2023-03-26T01:08:47.367Z,8.23
2023-03-26T01:11:14.540Z,6.60
2023-03-26T01:13:47.406Z,6.40
2023-03-26T01:16:37.129Z,6.68
2023-03-26T01:19:20.594Z,7.28
2023-03-26T01:21:47.818Z,6.82
2023-03-26T01:24:15.026Z,6.15
2023-03-26T01:26:45.092Z,6.00
2023-03-26T01:29:24.059Z,6.32
2023-03-26T01:31:59.904Z,6.55
2023-03-26T01:34:47.096Z,6.53
2023-03-26T01:37:23.076Z,6.45
2023-03-26T01:39:53.457Z,5.93
2023-03-26T01:42:39.734Z,5.82
2023-03-26T01:45:09.715Z,6.25
2023-03-26T01:47:38.465Z,6.60
2023-03-26T01:50:05.862Z,6.63
2023-03-26T01:52:33.257Z,5.80
2023-03-26T01:55:00.660Z,6.13
2023-03-26T01:57:35.806Z,5.80
2023-03-26T02:00:07.244Z,6.40
2023-03-26T02:03:17.534Z,6.45
2023-03-26T02:05:49.855Z,5.80
2023-03-26T02:08:23.136Z,6.63
2023-03-26T02:10:53.238Z,5.75
2023-03-26T02:13:20.911Z,6.10
2023-03-26T02:15:58.902Z,6.43
2023-03-26T02:18:36.381Z,6.15
2023-03-26T02:21:05.492Z,6.15
2023-03-26T02:23:36.090Z,5.50
2023-03-26T02:26:05.882Z,6.05
2023-03-26T02:28:33.874Z,5.97
2023-03-26T02:31:01.949Z,6.05
2023-03-26T02:33:29.745Z,6.40
2023-03-26T02:36:01.947Z,5.70
2023-03-26T02:38:30.101Z,6.18
2023-03-26T02:40:57.468Z,5.35
2023-03-26T02:43:24.666Z,5.93
2023-03-26T02:45:52.194Z,6.05
2023-03-26T02:48:20.277Z,5.93
2023-03-26T02:50:50.073Z,4.97
2023-03-26T02:53:17.588Z,5.50
2023-03-26T02:55:44.777Z,5.80
2023-03-26T02:58:12.515Z,5.30
2023-03-26T03:00:40.109Z,5.57
2023-03-26T03:03:09.477Z,5.68
2023-03-26T03:05:38.093Z,5.85
2023-03-26T03:08:05.967Z,5.10
2023-03-26T03:10:33.439Z,5.85
2023-03-26T03:13:00.691Z,5.25
2023-03-26T03:15:31.137Z,5.32
2023-03-26T03:17:58.329Z,4.72
2023-03-26T03:20:26.506Z,5.53
2023-03-26T03:22:53.799Z,5.38
2023-03-26T03:25:22.231Z,5.50
2023-03-26T03:27:50.228Z,5.72
2023-03-26T03:30:17.672Z,5.70
2023-03-26T03:32:44.926Z,5.03
2023-03-26T03:35:12.199Z,5.10
2023-03-26T03:37:39.467Z,5.47
2023-03-26T03:40:10.228Z,5.18
2023-03-26T03:42:37.781Z,5.47
2023-03-26T03:45:06.344Z,5.45
2023-03-26T03:47:33.625Z,5.30
2023-03-26T03:50:00.942Z,4.65
2023-03-26T03:52:28.400Z,4.78
2023-03-26T03:55:00.426Z,5.78
2023-03-26T03:57:28.544Z,5.00
2023-03-26T03:59:58.738Z,5.30
2023-03-26T04:02:30.398Z,5.68
2023-03-26T04:04:58.149Z,5.18
2023-03-26T04:07:26.123Z,4.90
2023-03-26T04:09:53.389Z,5.15
2023-03-26T04:12:20.670Z,4.55
2023-03-26T04:14:47.895Z,4.53
2023-03-26T04:17:15.596Z,5.00
2023-03-26T04:19:44.158Z,4.30
2023-03-26T04:22:11.967Z,5.35
2023-03-26T04:24:42.283Z,5.13
2023-03-26T04:27:13.005Z,5.50
2023-03-26T04:29:45.455Z,5.00
2023-03-26T04:32:14.886Z,4.28
2023-03-26T04:34:45.986Z,4.70
2023-03-26T04:37:43.250Z,4.63
2023-03-26T04:40:18.573Z,4.97
2023-03-26T04:42:46.336Z,5.00
2023-03-26T04:45:22.483Z,4.55
2023-03-26T04:47:50.581Z,4.68
2023-03-26T04:50:18.409Z,4.90
2023-03-26T04:52:45.938Z,4.25
2023-03-26T04:55:25.181Z,4.63
2023-03-26T04:57:57.235Z,4.43
2023-03-26T05:00:25.392Z,4.25
2023-03-26T05:02:55.914Z,4.60
2023-03-26T05:05:23.395Z,4.15
2023-03-26T05:07:50.651Z,4.18
2023-03-26T05:10:20.442Z,4.90
2023-03-26T05:12:47.683Z,4.68
2023-03-26T05:15:15.772Z,4.45
2023-03-26T05:17:43.274Z,4.15
2023-03-26T05:20:21.470Z,4.50
2023-03-26T05:22:52.054Z,4.20
2023-03-26T05:25:19.788Z,4.78
2023-03-26T05:27:47.017Z,4.18
2023-03-26T05:30:16.060Z,4.35
2023-03-26T05:32:43.678Z,4.00
2023-03-26T05:35:12.636Z,4.32
2023-03-26T05:37:40.000Z,4.40
2023-03-26T05:40:12.251Z,4.47
2023-03-26T05:42:39.994Z,3.90
2023-03-26T05:45:08.083Z,4.45
2023-03-26T05:47:35.447Z,3.60
2023-03-26T05:50:02.796Z,3.90
2023-03-26T05:52:30.054Z,3.53
2023-03-26T05:54:57.339Z,3.65
2023-03-26T05:57:28.461Z,4.38
2023-03-26T05:59:56.364Z,3.92
2023-03-26T06:02:23.903Z,4.43
2023-03-26T06:04:51.271Z,3.63
2023-03-26T06:07:19.707Z,4.15
2023-03-26T06:09:46.990Z,3.70
2023-03-26T06:12:14.280Z,3.85
2023-03-26T06:14:45.753Z,3.70
2023-03-26T06:17:12.982Z,4.45
2023-03-26T06:19:40.376Z,3.70
2023-03-26T06:22:07.596Z,4.32
2023-03-26T06:24:34.965Z,4.43
2023-03-26T06:27:02.240Z,3.70
2023-03-26T06:29:29.381Z,3.70
2023-03-26T06:32:01.432Z,3.90
2023-03-26T06:34:33.555Z,3.42
2023-03-26T06:37:00.915Z,3.72
2023-03-26T06:39:28.303Z,3.50
2023-03-26T06:41:55.556Z,4.20
2023-03-26T06:44:22.789Z,4.53
2023-03-26T06:46:50.231Z,3.92
2023-03-26T06:49:17.492Z,3.63
2023-03-26T06:51:46.391Z,4.50
2023-03-26T06:54:13.986Z,4.00
2023-03-26T06:56:41.339Z,4.15
2023-03-26T06:59:08.525Z,4.20
2023-03-26T07:01:35.849Z,3.78
2023-03-26T07:04:03.304Z,4.32
2023-03-26T07:06:30.515Z,3.95
2023-03-26T07:08:57.710Z,4.03
2023-03-26T07:11:26.983Z,4.35
2023-03-26T07:13:56.260Z,4.03
2023-03-26T07:16:23.784Z,3.97
2023-03-26T07:18:51.445Z,4.18
2023-03-26T07:21:19.855Z,4.20
2023-03-26T07:23:47.265Z,4.50
2023-03-26T07:26:35.425Z,3.97
2023-03-26T07:29:05.628Z,4.13
2023-03-26T07:31:43.018Z,4.43
2023-03-26T07:34:29.182Z,4.38
2023-03-26T07:39:34.852Z,4.93
2023-03-26T07:42:21.132Z,4.35
2023-03-26T07:44:54.534Z,4.63
2023-03-26T07:47:28.432Z,4.63
2023-03-26T07:49:57.922Z,4.95
2023-03-26T07:52:25.913Z,4.60
2023-03-26T07:54:53.375Z,4.97
2023-03-26T07:57:41.605Z,5.13
2023-03-26T08:00:16.072Z,4.45
2023-03-26T08:03:02.094Z,5.95
2023-03-26T08:07:59.515Z,5.60
2023-03-26T08:10:46.784Z,5.15
2023-03-26T08:13:36.196Z,4.80
2023-03-26T08:16:23.609Z,4.85
2023-03-26T08:18:56.662Z,4.93
2023-03-26T08:21:27.201Z,5.82
2023-03-26T08:24:06.681Z,5.38
2023-03-26T08:26:44.102Z,5.25
2023-03-26T08:29:18.283Z,5.10
2023-03-26T08:31:47.182Z,4.90
2023-03-26T08:34:14.513Z,5.28
2023-03-26T08:36:42.210Z,5.55
2023-03-26T08:39:09.436Z,5.68
2023-03-26T08:41:55.253Z,6.07
2023-03-26T08:44:37.905Z,5.38
2023-03-26T08:47:12.822Z,5.32
2023-03-26T08:50:06.471Z,6.30
2023-03-26T08:52:42.755Z,5.35
2023-03-26T08:55:28.508Z,5.30
2023-03-26T08:58:10.135Z,5.07
2023-03-26T09:00:40.837Z,5.28
2023-03-26T09:03:27.902Z,5.63
2023-03-26T09:06:13.905Z,6.80
2023-03-26T09:08:54.421Z,5.68
2023-03-26T09:11:40.202Z,5.55
2023-03-26T09:14:13.333Z,6.13
2023-03-26T09:16:46.789Z,5.80
2023-03-26T09:19:16.694Z,5.50
2023-03-26T09:21:46.807Z,5.13
2023-03-26T09:24:32.815Z,5.85
2023-03-26T09:27:09.108Z,5.90
2023-03-26T09:29:56.920Z,5.78
2023-03-26T09:32:30.780Z,6.03
2023-03-26T09:35:12.584Z,5.90
2023-03-26T09:37:56.434Z,7.10
2023-03-26T09:40:37.348Z,6.70
2023-03-26T09:43:24.036Z,5.90
2023-03-26T09:45:51.177Z,6.13
2023-03-26T09:48:21.505Z,6.50
2023-03-26T09:50:48.687Z,6.80
2023-03-26T09:53:24.001Z,7.03
2023-03-26T09:55:54.537Z,6.88
2023-03-26T09:58:21.850Z,7.78
2023-03-26T10:00:53.103Z,6.75
2023-03-26T10:03:24.730Z,6.78
2023-03-26T10:05:53.069Z,8.23
2023-03-26T10:08:32.178Z,8.80
2023-03-26T10:11:12.204Z,7.60
2023-03-26T10:13:51.716Z,7.97
2023-03-26T10:16:29.066Z,8.80
2023-03-26T10:19:14.920Z,8.50
2023-03-26T10:21:47.021Z,8.57
2023-03-26T10:24:32.894Z,9.45
2023-03-26T10:27:16.420Z,8.82
2023-03-26T10:29:43.616Z,10.30
2023-03-26T10:32:30.462Z,10.60
2023-03-26T10:35:03.455Z,11.75
2023-03-26T10:37:37.320Z,10.27
2023-03-26T10:40:13.906Z,10.05
2023-03-26T10:42:47.172Z,9.00
2023-03-26T10:45:14.733Z,8.75
2023-03-26T10:47:51.546Z,9.48
2023-03-26T10:50:37.689Z,9.40
2023-03-26T10:55:32.058Z,8.55
2023-03-26T10:58:12.511Z,8.40
2023-03-26T11:00:51.414Z,9.98
2023-03-26T11:03:27.176Z,9.27
2023-03-26T11:08:32.182Z,78.68
2023-03-26T11:11:00.696Z,50.22
2023-03-26T11:13:47.101Z,38.65
2023-03-26T11:16:25.472Z,35.75
2023-03-26T11:19:05.084Z,33.63
2023-03-26T11:21:59.240Z,29.02
2023-03-26T11:24:26.350Z,26.50
2023-03-26T11:26:56.081Z,35.95
2023-03-26T11:29:34.827Z,35.80
2023-03-26T11:32:22.158Z,31.55
2023-03-26T11:34:58.665Z,27.35
2023-03-26T11:37:30.084Z,24.58
2023-03-26T11:39:58.646Z,26.70
2023-03-26T11:42:26.140Z,22.05
2023-03-26T11:45:01.664Z,21.92
2023-03-26T11:47:36.206Z,19.95
2023-03-26T11:50:04.599Z,19.80
2023-03-26T11:52:31.816Z,16.10
2023-03-26T11:54:59.408Z,16.92
2023-03-26T11:57:28.619Z,15.93
2023-03-26T11:59:59.428Z,15.27
2023-03-26T12:02:34.010Z,14.60
2023-03-26T12:05:21.057Z,13.97
2023-03-26T12:07:51.309Z,14.65
2023-03-26T12:10:26.822Z,13.98
2023-03-26T12:12:55.905Z,13.73
2023-03-26T12:15:23.361Z,14.50
2023-03-26T12:17:53.690Z,12.93
2023-03-26T12:20:27.224Z,14.40
2023-03-26T12:22:59.442Z,13.85
2023-03-26T12:25:26.788Z,14.20
2023-03-26T12:28:04.859Z,13.55
2023-03-26T12:30:39.629Z,13.93
2023-03-26T12:33:08.812Z,13.88
2023-03-26T12:35:36.665Z,13.75
2023-03-26T12:38:34.797Z,13.50
2023-03-26T12:41:08.535Z,13.80
2023-03-26T12:44:54.026Z,12.05
2023-03-26T12:47:58.244Z,12.27
2023-03-26T12:49:34.580Z,12.90
2023-03-26T12:52:20.630Z,13.07
2023-03-26T12:54:48.388Z,14.48
2023-03-26T12:57:26.569Z,13.05
2023-03-26T12:59:57.116Z,12.45
2023-03-26T13:02:43.955Z,12.27
2023-03-26T13:05:14.757Z,12.15
2023-03-26T13:07:54.683Z,12.25
2023-03-26T13:10:29.297Z,13.15
2023-03-26T13:13:15.415Z,12.75
2023-03-26T13:18:21.950Z,12.10
2023-03-26T13:20:49.113Z,12.48
2023-03-26T13:23:38.372Z,11.98
2023-03-26T13:26:14.757Z,13.30
2023-03-26T13:28:42.012Z,11.93
2023-03-26T13:31:15.197Z,11.73
2023-03-26T13:34:00.614Z,11.82
2023-03-26T13:36:34.468Z,12.05
2023-03-26T13:39:05.012Z,12.02
2023-03-26T13:41:32.203Z,11.57
2023-03-26T13:44:18.433Z,12.18
2023-03-26T13:49:15.600Z,12.63
2023-03-26T13:51:50.904Z,11.65
2023-03-26T13:54:24.372Z,11.60
2023-03-26T13:56:55.849Z,12.20
2023-03-26T13:59:23.125Z,13.40
2023-03-26T14:01:53.990Z,11.85
2023-03-26T14:04:24.229Z,13.98
2023-03-26T14:07:06.373Z,12.20
2023-03-26T14:09:33.598Z,12.77
2023-03-26T14:12:20.887Z,12.32
2023-03-26T14:14:57.666Z,13.80
2023-03-26T14:17:40.157Z,12.75
2023-03-26T14:20:22.457Z,13.52
2023-03-26T14:22:49.648Z,12.93
2023-03-26T14:25:32.999Z,13.10
2023-03-26T14:28:18.963Z,12.00
2023-03-26T14:31:09.640Z,12.43
2023-03-26T14:33:45.993Z,13.48
2023-03-26T14:36:16.524Z,11.75
2023-03-26T14:38:49.734Z,12.88
2023-03-26T14:41:29.765Z,12.20
2023-03-26T14:44:15.661Z,12.13
2023-03-26T14:46:54.281Z,12.23
2023-03-26T14:49:39.820Z,11.93
2023-03-26T14:52:19.378Z,11.77
2023-03-26T14:54:49.148Z,11.80
2023-03-26T14:57:19.085Z,12.38
2023-03-26T15:00:13.977Z,11.80
2023-03-26T15:02:59.087Z,12.15
2023-03-26T15:05:29.277Z,11.63
2023-03-26T15:08:11.877Z,10.82
2023-03-26T15:10:49.596Z,13.57
2023-03-26T15:13:32.045Z,11.85
2023-03-26T15:16:18.030Z,10.90
2023-03-26T15:18:45.409Z,11.57
2023-03-26T15:21:22.028Z,12.55
2023-03-26T15:23:49.232Z,13.18
2023-03-26T15:26:37.090Z,12.40
2023-03-26T15:29:08.461Z,10.75
2023-03-26T15:31:47.786Z,11.70
2023-03-26T15:34:15.077Z,11.80
2023-03-26T15:36:45.340Z,12.45
2023-03-26T15:39:31.156Z,11.57
2023-03-26T15:42:17.968Z,11.30
2023-03-26T15:44:53.992Z,11.18
2023-03-26T15:47:51.462Z,11.90
2023-03-26T15:50:24.503Z,11.10
2023-03-26T15:52:57.938Z,10.90
2023-03-26T15:55:28.040Z,11.02
2023-03-26T15:58:03.519Z,11.85
2023-03-26T16:00:35.125Z,10.73
2023-03-26T16:03:11.011Z,11.07
2023-03-26T16:05:46.601Z,11.18
2023-03-26T16:08:38.676Z,11.52
2023-03-26T16:11:12.718Z,10.35
2023-03-26T16:13:41.360Z,11.57
2023-03-26T16:16:22.758Z,10.40
2023-03-26T16:18:58.461Z,10.88
2023-03-26T16:24:10.217Z,9.40
2023-03-26T16:26:37.421Z,10.57
2023-03-26T16:29:22.321Z,10.68
2023-03-26T16:32:09.123Z,10.43
2023-03-26T16:35:02.871Z,10.07
2023-03-26T16:37:36.568Z,9.32
2023-03-26T16:40:20.485Z,9.95
2023-03-26T16:42:52.690Z,10.05
2023-03-26T16:45:29.231Z,9.15
2023-03-26T16:48:07.173Z,10.60
2023-03-26T16:50:43.903Z,9.60
2023-03-26T16:53:13.901Z,8.88
2023-03-26T16:55:47.712Z,10.18
2023-03-26T16:58:31.884Z,9.40
2023-03-26T17:01:08.461Z,9.65
2023-03-26T17:03:59.182Z,9.20
2023-03-26T17:06:45.755Z,8.50
2023-03-26T17:09:16.025Z,10.43
2023-03-26T17:11:49.296Z,9.30
2023-03-26T17:14:35.325Z,9.07
2023-03-26T17:17:08.625Z,9.07
2023-03-26T17:20:02.025Z,8.85
2023-03-26T17:22:38.026Z,9.13
2023-03-26T17:25:11.494Z,9.02
2023-03-26T17:27:57.560Z,9.07
2023-03-26T17:32:58.809Z,8.60
2023-03-26T17:35:46.042Z,8.07
2023-03-26T17:38:19.096Z,8.45
2023-03-26T17:40:48.128Z,8.30
2023-03-26T17:43:44.775Z,8.00
2023-03-26T17:48:41.863Z,8.18
2023-03-26T17:51:21.289Z,8.30
2023-03-26T17:53:49.067Z,8.52
2023-03-26T17:56:19.520Z,8.38
2023-03-26T17:58:52.660Z,8.38
2023-03-26T18:01:37.054Z,8.57
2023-03-26T18:04:06.919Z,8.25
2023-03-26T18:06:37.092Z,8.43
2023-03-26T18:09:19.335Z,8.30
2023-03-26T18:11:52.599Z,7.95
2023-03-26T18:14:32.647Z,8.25
2023-03-26T18:17:01.127Z,8.57
2023-03-26T18:19:28.779Z,7.45
2023-03-26T18:22:00.305Z,7.57
2023-03-26T18:24:29.246Z,7.50
2023-03-26T18:27:02.733Z,7.18
2023-03-26T18:29:31.347Z,7.75
2023-03-26T18:32:02.926Z,7.40
2023-03-26T18:34:34.119Z,8.18
2023-03-26T18:37:14.883Z,10.70
2023-03-26T18:39:43.068Z,9.30
2023-03-26T18:42:22.845Z,8.82
2023-03-26T18:44:52.483Z,8.55
2023-03-26T18:47:20.438Z,8.70
2023-03-26T18:49:48.773Z,8.68
2023-03-26T18:52:17.726Z,8.45
2023-03-26T18:54:48.759Z,7.68
2023-03-26T18:57:23.974Z,8.15
2023-03-26T18:59:52.199Z,9.10
2023-03-26T19:02:20.606Z,8.77
2023-03-26T19:04:49.439Z,8.65
2023-03-26T19:07:18.217Z,8.80
2023-03-26T19:09:45.870Z,8.35
2023-03-26T19:12:16.245Z,8.18
2023-03-26T19:14:55.067Z,8.25
2023-03-26T19:17:22.794Z,8.85
2023-03-26T19:19:51.032Z,8.60
2023-03-26T19:22:19.079Z,8.70
2023-03-26T19:24:47.230Z,9.38
2023-03-26T19:27:14.465Z,7.70
2023-03-26T19:29:42.980Z,8.05
2023-03-26T19:32:17.478Z,8.00
2023-03-26T19:34:45.617Z,8.98
2023-03-26T19:37:26.440Z,8.13
2023-03-26T19:39:54.479Z,9.25
2023-03-26T19:42:44.144Z,8.25
2023-03-26T19:45:16.561Z,8.13
2023-03-26T19:47:52.118Z,9.15
2023-03-26T19:50:27.166Z,8.93
2023-03-26T19:53:15.310Z,8.07
2023-03-26T19:55:52.808Z,8.65
2023-03-26T19:58:19.989Z,8.70
2023-03-26T20:00:47.183Z,8.93
2023-03-26T20:03:16.622Z,9.02
2023-03-26T20:05:43.933Z,8.95
2023-03-26T20:08:15.023Z,8.48
2023-03-26T20:10:43.182Z,9.02
2023-03-26T20:13:15.929Z,10.10
2023-03-26T20:15:45.346Z,9.50
2023-03-26T20:18:12.680Z,9.07
2023-03-26T20:20:41.180Z,8.93
2023-03-26T20:23:17.671Z,9.25
2023-03-26T20:25:51.599Z,9.25
2023-03-26T20:28:19.644Z,9.40
2023-03-26T20:30:47.939Z,8.82
2023-03-26T20:33:25.559Z,9.23
2023-03-26T20:35:56.223Z,9.63
2023-03-26T20:38:36.551Z,8.82
2023-03-26T20:41:06.969Z,8.90
2023-03-26T20:43:34.447Z,8.55
2023-03-26T20:46:01.684Z,8.48
2023-03-26T20:48:28.910Z,9.75
2023-03-26T20:50:57.131Z,8.52
2023-03-26T20:53:24.967Z,8.23
2023-03-26T20:55:52.268Z,8.25
2023-03-26T20:58:31.366Z,7.85
2023-03-26T21:01:00.772Z,7.28
2023-03-26T21:03:28.056Z,8.85
2023-03-26T21:05:55.300Z,9.20
2023-03-26T21:08:30.055Z,8.70
2023-03-26T21:11:01.921Z,8.43
2023-03-26T21:13:40.896Z,8.70
2023-03-26T21:16:08.448Z,8.27
2023-03-26T21:18:37.406Z,8.55
2023-03-26T21:21:18.227Z,8.63
2023-03-26T21:23:59.095Z,8.30
2023-03-26T21:26:29.733Z,8.20
2023-03-26T21:28:57.003Z,10.70
2023-03-26T21:31:24.668Z,10.95
2023-03-26T21:33:52.137Z,9.40
2023-03-26T21:36:20.159Z,8.48
2023-03-26T21:38:47.550Z,9.40
2023-03-26T21:41:23.942Z,7.93
2023-03-26T21:43:51.826Z,8.85
2023-03-26T21:46:19.339Z,9.05
2023-03-26T21:48:46.635Z,9.15
2023-03-26T21:51:15.173Z,7.95
2023-03-26T21:53:43.200Z,7.50
2023-03-26T21:56:35.433Z,9.23
2023-03-26T21:59:02.612Z,9.13
2023-03-26T22:01:34.948Z,8.48
2023-03-26T22:04:08.598Z,8.18
2023-03-26T22:06:55.366Z,8.77
2023-03-26T22:09:33.921Z,8.35
2023-03-26T22:12:03.490Z,9.48
2023-03-26T22:14:30.770Z,8.00
2023-03-26T22:16:58.049Z,7.72
2023-03-26T22:19:25.885Z,8.50
2023-03-26T22:21:54.317Z,8.85
2023-03-26T22:24:21.492Z,9.52
2023-03-26T22:26:48.650Z,7.80
2023-03-26T22:29:15.879Z,8.32
2023-03-26T22:31:43.138Z,8.18
2023-03-26T22:34:10.345Z,7.28
2023-03-26T22:36:39.039Z,8.18
2023-03-26T22:39:07.567Z,8.57
2023-03-26T22:41:34.827Z,7.40
2023-03-26T22:44:16.922Z,7.72
2023-03-26T22:46:49.443Z,8.40
2023-03-26T22:49:16.909Z,7.78
2023-03-26T22:51:44.545Z,8.07
2023-03-26T22:54:12.131Z,6.90
2023-03-26T22:56:39.477Z,7.47
2023-03-26T22:59:06.689Z,7.43
2023-03-26T23:01:34.387Z,7.35
2023-03-26T23:04:01.722Z,7.32
2023-03-26T23:06:29.110Z,7.13
2023-03-26T23:08:57.031Z,7.47
2023-03-26T23:11:24.469Z,8.07
2023-03-26T23:13:51.816Z,7.80
2023-03-26T23:16:20.232Z,6.85
2023-03-26T23:18:47.832Z,6.60
2023-03-26T23:21:16.132Z,7.03
2023-03-26T23:23:43.447Z,6.22
2023-03-26T23:26:10.978Z,7.10
2023-03-26T23:28:38.724Z,6.50
2023-03-26T23:31:06.918Z,6.82
2023-03-26T23:33:35.600Z,7.07
2023-03-26T23:36:09.197Z,6.68
2023-03-26T23:38:44.229Z,5.80
2023-03-26T23:41:15.709Z,5.85
2023-03-26T23:43:54.295Z,6.65
2023-03-26T23:46:23.543Z,6.63
2023-03-26T23:48:51.193Z,6.30
2023-03-26T23:51:20.109Z,5.90
2023-03-26T23:53:47.937Z,6.00
2023-03-26T23:56:15.371Z,6.50
2023-03-26T23:58:42.963Z,6.20
